sensor_id;sensor_type;location;lat;lon;timestamp;pressure;altitude;pressure_sealevel;temperature;humidity
62111;BME280;48102;47.526;19.072;2022-12-20T04:39:45;102132.91;;;-1.41;100.00
62111;BME280;48102;47.526;19.072;2022-12-20T04:42:50;102132.91;;;-1.41;100.00
62111;BME280;48102;47.526;19.072;2022-12-20T04:45:54;102130.78;;;-1.84;100.00
62111;BME280;48102;47.526;19.072;2022-12-20T04:48:58;102130.00;;;-1.82;100.00
62111;BME280;48102;47.526;19.072;2022-12-20T04:52:02;102129.19;;;-1.81;100.00
62111;BME280;48102;47.526;19.072;2022-12-20T04:55:24;102131.97;;;-1.73;100.00
62111;BME280;48102;47.526;19.072;2022-12-20T04:58:27;102147.31;;;-1.79;100.00
62111;BME280;48102;47.526;19.072;2022-12-20T05:01:33;102141.56;;;-1.69;100.00
62111;BME280;48102;47.526;19.072;2022-12-20T05:04:36;102143.94;;;-1.77;100.00
62111;BME280;48102;47.526;19.072;2022-12-20T05:07:39;102143.97;;;-1.75;100.00
62111;BME280;48102;47.526;19.072;2022-12-20T05:10:42;102147.31;;;-1.79;100.00
62111;BME280;48102;47.526;19.072;2022-12-20T05:13:45;102159.25;;;-1.83;100.00
62111;BME280;48102;47.526;19.072;2022-12-20T05:16:49;102156.88;;;-1.77;100.00
62111;BME280;48102;47.526;19.072;2022-12-20T05:19:54;102162.72;;;-1.82;100.00
62111;BME280;48102;47.526;19.072;2022-12-20T05:22:57;102149.88;;;-1.79;100.00
62111;BME280;48102;47.526;19.072;2022-12-20T05:26:21;102154.91;;;-1.84;100.00
62111;BME280;48102;47.526;19.072;2022-12-20T05:29:27;102170.38;;;-1.85;100.00
62111;BME280;48102;47.526;19.072;2022-12-20T05:32:30;102168.44;;;-1.92;100.00
62111;BME280;48102;47.526;19.072;2022-12-20T05:35:33;102163.41;;;-1.88;100.00
62111;BME280;48102;47.526;19.072;2022-12-20T05:38:38;102160.56;;;-1.97;100.00
62111;BME280;48102;47.526;19.072;2022-12-20T05:41:43;102157.47;;;-1.85;100.00
62111;BME280;48102;47.526;19.072;2022-12-20T05:44:46;102166.72;;;-1.92;100.00
62111;BME280;48102;47.526;19.072;2022-12-20T05:47:49;102163.13;;;-1.97;100.00
62111;BME280;48102;47.526;19.072;2022-12-20T05:50:54;102158.87;;;-1.95;100.00
62111;BME280;48102;47.526;19.072;2022-12-20T05:53:57;102158.06;;;-1.94;100.00
62111;BME280;48102;47.526;19.072;2022-12-20T05:57:02;102152.66;;;-2.02;100.00
62111;BME280;48102;47.526;19.072;2022-12-20T06:00:06;102140.38;;;-2.09;100.00
62111;BME280;48102;47.526;19.072;2022-12-20T06:03:18;102136.66;;;-2.18;100.00
62111;BME280;48102;47.526;19.072;2022-12-20T06:06:21;102134.94;;;-2.18;100.00
62111;BME280;48102;47.526;19.072;2022-12-20T06:09:24;102131.94;;;-2.32;100.00
62111;BME280;48102;47.526;19.072;2022-12-20T06:12:27;102120.91;;;-2.26;100.00
62111;BME280;48102;47.526;19.072;2022-12-20T06:15:30;102111.50;;;-2.24;100.00
62111;BME280;48102;47.526;19.072;2022-12-20T06:18:34;102113.06;;;-2.29;100.00
62111;BME280;48102;47.526;19.072;2022-12-20T06:21:38;102114.38;;;-2.15;100.00
62111;BME280;48102;47.526;19.072;2022-12-20T06:24:42;102118.28;;;-2.28;100.00
62111;BME280;48102;47.526;19.072;2022-12-20T06:27:50;102113.62;;;-2.38;100.00
62111;BME280;48102;47.526;19.072;2022-12-20T06:30:54;102120.38;;;-2.43;100.00
62111;BME280;48102;47.526;19.072;2022-12-20T06:33:59;102117.19;;;-2.34;100.00
62111;BME280;48102;47.526;19.072;2022-12-20T06:37:02;102118.88;;;-2.36;100.00
62111;BME280;48102;47.526;19.072;2022-12-20T06:40:10;102110.88;;;-2.44;100.00
62111;BME280;48102;47.526;19.072;2022-12-20T06:43:14;102110.34;;;-2.34;100.00
62111;BME280;48102;47.526;19.072;2022-12-20T06:46:17;102096.69;;;-2.30;100.00
62111;BME280;48102;47.526;19.072;2022-12-20T06:49:20;102098.06;;;-2.12;100.00
62111;BME280;48102;47.526;19.072;2022-12-20T06:52:24;102099.75;;;-2.14;100.00
62111;BME280;48102;47.526;19.072;2022-12-20T06:55:28;102092.09;;;-2.11;100.00
62111;BME280;48102;47.526;19.072;2022-12-20T06:58:31;102095.59;;;-2.09;100.00
62111;BME280;48102;47.526;19.072;2022-12-20T07:01:34;102076.78;;;-2.05;100.00
62111;BME280;48102;47.526;19.072;2022-12-20T07:04:37;102080.00;;;-1.84;100.00
62111;BME280;48102;47.526;19.072;2022-12-20T07:07:40;102072.84;;;-1.62;100.00
62111;BME280;48102;47.526;19.072;2022-12-20T07:10:47;102088.69;;;-1.50;100.00
62111;BME280;48102;47.526;19.072;2022-12-20T07:13:56;102082.16;;;-1.37;100.00
62111;BME280;48102;47.526;19.072;2022-12-20T07:16:59;102075.75;;;-1.18;100.00
62111;BME280;48102;47.526;19.072;2022-12-20T07:20:02;102075.84;;;-1.15;100.00
62111;BME280;48102;47.526;19.072;2022-12-20T07:23:14;102090.53;;;-1.13;100.00
62111;BME280;48102;47.526;19.072;2022-12-20T07:26:17;102090.94;;;-0.99;100.00
62111;BME280;48102;47.526;19.072;2022-12-20T07:29:19;102085.06;;;-0.92;100.00
62111;BME280;48102;47.526;19.072;2022-12-20T07:32:22;102082.13;;;-0.71;100.00
62111;BME280;48102;47.526;19.072;2022-12-20T07:35:27;102093.44;;;-0.67;100.00
62111;BME280;48102;47.526;19.072;2022-12-20T07:38:30;102101.44;;;-0.57;100.00
62111;BME280;48102;47.526;19.072;2022-12-20T07:41:33;102098.03;;;-0.56;100.00
62111;BME280;48102;47.526;19.072;2022-12-20T07:44:37;102081.44;;;-0.64;100.00
62111;BME280;48102;47.526;19.072;2022-12-20T07:47:40;102088.25;;;-0.67;100.00
62111;BME280;48102;47.526;19.072;2022-12-20T07:50:43;102092.97;;;-0.86;100.00
62111;BME280;48102;47.526;19.072;2022-12-20T07:53:50;102091.56;;;-0.73;100.00
62111;BME280;48102;47.526;19.072;2022-12-20T07:56:58;102093.91;;;-0.82;100.00
62111;BME280;48102;47.526;19.072;2022-12-20T08:00:04;102088.22;;;-0.69;100.00
62111;BME280;48102;47.526;19.072;2022-12-20T08:03:22;102090.22;;;-0.57;100.00
62111;BME280;48102;47.526;19.072;2022-12-20T08:06:30;102077.28;;;-0.19;100.00
62111;BME280;48102;47.526;19.072;2022-12-20T08:09:37;102071.81;;;-0.32;100.00
62111;BME280;48102;47.526;19.072;2022-12-20T08:12:42;102061.81;;;-0.54;100.00
62111;BME280;48102;47.526;19.072;2022-12-20T08:15:46;102057.31;;;-0.61;100.00
62111;BME280;48102;47.526;19.072;2022-12-20T08:18:49;102052.97;;;-0.64;100.00
62111;BME280;48102;47.526;19.072;2022-12-20T08:21:51;102053.09;;;-0.58;100.00
62111;BME280;48102;47.526;19.072;2022-12-20T08:24:54;102040.34;;;-0.48;100.00
62111;BME280;48102;47.526;19.072;2022-12-20T08:27:57;102029.22;;;-0.44;100.00
62111;BME280;48102;47.526;19.072;2022-12-20T08:31:05;102044.88;;;-0.40;100.00
62111;BME280;48102;47.526;19.072;2022-12-20T08:34:09;102047.66;;;-0.31;100.00
62111;BME280;48102;47.526;19.072;2022-12-20T08:37:12;102052.03;;;-0.30;100.00
62111;BME280;48102;47.526;19.072;2022-12-20T08:40:18;102050.09;;;0.03;100.00
62111;BME280;48102;47.526;19.072;2022-12-20T08:43:21;102045.62;;;0.38;100.00
62111;BME280;48102;47.526;19.072;2022-12-20T08:46:23;102040.00;;;0.60;100.00
62111;BME280;48102;47.526;19.072;2022-12-20T08:49:27;102047.91;;;0.68;100.00
62111;BME280;48102;47.526;19.072;2022-12-20T08:52:29;102047.03;;;0.67;100.00
62111;BME280;48102;47.526;19.072;2022-12-20T08:55:32;102030.47;;;0.59;100.00
62111;BME280;48102;47.526;19.072;2022-12-20T08:58:35;102028.34;;;0.85;100.00
62111;BME280;48102;47.526;19.072;2022-12-20T09:01:38;102028.47;;;1.47;100.00
62111;BME280;48102;47.526;19.072;2022-12-20T09:04:41;102039.59;;;2.03;94.36
62111;BME280;48102;47.526;19.072;2022-12-20T09:07:46;102042.34;;;2.13;90.62
62111;BME280;48102;47.526;19.072;2022-12-20T09:10:48;102036.06;;;1.94;92.88
62111;BME280;48102;47.526;19.072;2022-12-20T09:13:53;102033.16;;;1.73;93.18
62111;BME280;48102;47.526;19.072;2022-12-20T09:16:55;102039.81;;;1.53;96.60
62111;BME280;48102;47.526;19.072;2022-12-20T09:19:59;102040.56;;;1.45;97.87
62111;BME280;48102;47.526;19.072;2022-12-20T09:23:01;102044.06;;;1.47;97.23
62111;BME280;48102;47.526;19.072;2022-12-20T09:26:15;102036.19;;;1.43;97.53
62111;BME280;48102;47.526;19.072;2022-12-20T09:29:18;102036.13;;;1.38;97.54
62111;BME280;48102;47.526;19.072;2022-12-20T09:32:29;102039.56;;;1.37;97.89
62111;BME280;48102;47.526;19.072;2022-12-20T09:35:32;102027.44;;;1.38;97.21
62111;BME280;48102;47.526;19.072;2022-12-20T09:38:36;102018.78;;;1.37;96.96
62111;BME280;48102;47.526;19.072;2022-12-20T09:41:43;102004.84;;;1.31;96.64
62111;BME280;48102;47.526;19.072;2022-12-20T09:44:47;101999.84;;;1.46;97.63
62111;BME280;48102;47.526;19.072;2022-12-20T09:47:50;101989.66;;;1.60;96.38
62111;BME280;48102;47.526;19.072;2022-12-20T09:51:10;101997.53;;;1.66;95.88
62111;BME280;48102;47.526;19.072;2022-12-20T09:54:28;101977.56;;;1.60;94.85
62111;BME280;48102;47.526;19.072;2022-12-20T10:00:51;101994.03;;;1.62;94.46
62111;BME280;48102;47.526;19.072;2022-12-20T10:03:57;101986.13;;;1.55;94.95
62111;BME280;48102;47.526;19.072;2022-12-20T10:07:19;101975.78;;;1.58;95.47
62111;BME280;48102;47.526;19.072;2022-12-20T10:17:02;101974.06;;;1.58;94.23
62111;BME280;48102;47.526;19.072;2022-12-20T10:20:43;101972.31;;;1.56;93.97
62111;BME280;48102;47.526;19.072;2022-12-20T10:23:59;101948.94;;;1.56;94.48
62111;BME280;48102;47.526;19.072;2022-12-20T10:30:18;101944.94;;;1.85;93.14
62111;BME280;48102;47.526;19.072;2022-12-20T10:33:22;101943.25;;;1.87;91.73
62111;BME280;48102;47.526;19.072;2022-12-20T10:36:31;101928.84;;;2.20;90.70
62111;BME280;48102;47.526;19.072;2022-12-20T10:39:40;101914.25;;;2.34;87.31
62111;BME280;48102;47.526;19.072;2022-12-20T10:42:44;101906.97;;;3.01;84.89
62111;BME280;48102;47.526;19.072;2022-12-20T10:46:06;101909.88;;;3.61;81.71
62111;BME280;48102;47.526;19.072;2022-12-20T10:52:23;101915.22;;;4.01;75.00
62111;BME280;48102;47.526;19.072;2022-12-20T10:58:36;101892.47;;;3.52;76.40
62111;BME280;48102;47.526;19.072;2022-12-20T11:01:43;101877.44;;;2.95;80.08
62111;BME280;48102;47.526;19.072;2022-12-20T11:08:16;101873.97;;;2.96;81.71
62111;BME280;48102;47.526;19.072;2022-12-20T11:11:56;101871.28;;;2.88;82.38
62111;BME280;48102;47.526;19.072;2022-12-20T11:15:15;101866.91;;;2.78;83.96
62111;BME280;48102;47.526;19.072;2022-12-20T11:41:24;101828.78;;;2.89;81.72
62111;BME280;48102;47.526;19.072;2022-12-20T11:54:45;101811.66;;;3.49;80.21
62111;BME280;48102;47.526;19.072;2022-12-20T11:57:59;101817.81;;;3.74;77.48
62111;BME280;48102;47.526;19.072;2022-12-20T12:01:30;101819.56;;;3.78;75.67
62111;BME280;48102;47.526;19.072;2022-12-20T12:04:40;101818.69;;;3.72;76.68
62111;BME280;48102;47.526;19.072;2022-12-20T12:07:49;101811.66;;;3.43;76.84
62111;BME280;48102;47.526;19.072;2022-12-20T12:11:03;101802.16;;;3.61;77.72
62111;BME280;48102;47.526;19.072;2022-12-20T12:14:25;101807.44;;;4.33;77.15
62111;BME280;48102;47.526;19.072;2022-12-20T12:17:53;101796.91;;;4.85;70.83
62111;BME280;48102;47.526;19.072;2022-12-20T12:21:21;101798.66;;;4.76;70.12
62111;BME280;48102;47.526;19.072;2022-12-20T12:24:35;101790.84;;;4.76;72.16
62111;BME280;48102;47.526;19.072;2022-12-20T12:27:41;101789.94;;;4.74;70.12
62111;BME280;48102;47.526;19.072;2022-12-20T12:30:57;101786.53;;;4.43;71.83
62111;BME280;48102;47.526;19.072;2022-12-20T12:41:09;101775.28;;;4.15;72.90
62111;BME280;48102;47.526;19.072;2022-12-20T12:47:49;101753.50;;;3.73;75.94
62111;BME280;48102;47.526;19.072;2022-12-20T12:50:56;101764.78;;;3.62;76.50
62111;BME280;48102;47.526;19.072;2022-12-20T12:54:25;101765.63;;;3.45;78.33
62111;BME280;48102;47.526;19.072;2022-12-20T12:57:58;101761.28;;;3.53;79.02
62111;BME280;48102;47.526;19.072;2022-12-20T13:01:48;101767.41;;;3.60;77.29
62111;BME280;48102;47.526;19.072;2022-12-20T13:08:16;101758.66;;;3.31;79.77
62111;BME280;48102;47.526;19.072;2022-12-20T13:11:34;101755.13;;;3.12;82.03
62111;BME280;48102;47.526;19.072;2022-12-20T13:14:47;101745.53;;;3.00;82.34
62111;BME280;48102;47.526;19.072;2022-12-20T13:17:56;101743.81;;;3.08;82.87
62111;BME280;48102;47.526;19.072;2022-12-20T13:21:16;101747.25;;;3.06;82.50
62111;BME280;48102;47.526;19.072;2022-12-20T13:24:38;101742.06;;;3.09;82.08
62111;BME280;48102;47.526;19.072;2022-12-20T13:27:50;101736.88;;;3.03;83.05
62111;BME280;48102;47.526;19.072;2022-12-20T13:38:02;101723.88;;;3.13;82.94
62111;BME280;48102;47.526;19.072;2022-12-20T13:41:32;101723.88;;;3.13;83.94
62111;BME280;48102;47.526;19.072;2022-12-20T13:44:43;101722.09;;;3.11;82.19
62111;BME280;48102;47.526;19.072;2022-12-20T13:47:54;101733.34;;;2.97;82.72
62111;BME280;48102;47.526;19.072;2022-12-20T13:51:00;101732.41;;;2.80;85.13
62111;BME280;48102;47.526;19.072;2022-12-20T13:54:06;101729.81;;;2.79;85.08
62111;BME280;48102;47.526;19.072;2022-12-20T13:57:15;101722.00;;;2.79;85.64
62111;BME280;48102;47.526;19.072;2022-12-20T14:00:24;101721.97;;;2.68;86.96
62111;BME280;48102;47.526;19.072;2022-12-20T14:03:29;101707.16;;;2.62;87.79
62111;BME280;48102;47.526;19.072;2022-12-20T14:06:32;101699.28;;;2.45;88.26
62111;BME280;48102;47.526;19.072;2022-12-20T14:09:37;101690.66;;;2.53;89.07
62111;BME280;48102;47.526;19.072;2022-12-20T14:12:43;101681.06;;;2.45;89.48
62111;BME280;48102;47.526;19.072;2022-12-20T14:15:47;101688.06;;;2.56;88.97
62111;BME280;48102;47.526;19.072;2022-12-20T14:18:59;101682.81;;;2.45;89.26
62111;BME280;48102;47.526;19.072;2022-12-20T14:22:03;101677.59;;;2.45;89.43
62111;BME280;48102;47.526;19.072;2022-12-20T14:25:07;101682.69;;;2.22;89.46
62111;BME280;48102;47.526;19.072;2022-12-20T14:31:41;101688.41;;;1.75;100.00
62111;BME280;48102;47.526;19.072;2022-12-20T14:34:45;101679.41;;;1.36;100.00
62111;BME280;48102;47.526;19.072;2022-12-20T14:37:57;101670.56;;;1.14;100.00
62111;BME280;48102;47.526;19.072;2022-12-20T14:41:01;101668.59;;;0.95;100.00
62111;BME280;48102;47.526;19.072;2022-12-20T14:44:19;101659.84;;;0.84;100.00
62111;BME280;48102;47.526;19.072;2022-12-20T14:47:27;101664.94;;;0.76;100.00
62111;BME280;48102;47.526;19.072;2022-12-20T14:50:39;101660.50;;;0.67;100.00
62111;BME280;48102;47.526;19.072;2022-12-20T14:53:45;101662.34;;;0.78;100.00
62111;BME280;48102;47.526;19.072;2022-12-20T14:56:49;101657.19;;;0.79;100.00
62111;BME280;48102;47.526;19.072;2022-12-20T15:03:20;101663.09;;;0.67;100.00
62111;BME280;48102;47.526;19.072;2022-12-20T15:06:38;101664.00;;;0.69;100.00
62111;BME280;48102;47.526;19.072;2022-12-20T15:09:42;101670.03;;;0.65;100.00
62111;BME280;48102;47.526;19.072;2022-12-20T15:12:45;101663.06;;;0.64;100.00
62111;BME280;48102;47.526;19.072;2022-12-20T15:15:48;101663.91;;;0.62;100.00
62111;BME280;48102;47.526;19.072;2022-12-20T15:18:54;101660.41;;;0.57;100.00
62111;BME280;48102;47.526;19.072;2022-12-20T15:21:57;101669.75;;;0.47;100.00
62111;BME280;48102;47.526;19.072;2022-12-20T15:25:00;101662.84;;;0.44;100.00
62111;BME280;48102;47.526;19.072;2022-12-20T15:28:11;101653.38;;;0.48;100.00
62111;BME280;48102;47.526;19.072;2022-12-20T15:31:17;101652.47;;;0.46;100.00
62111;BME280;48102;47.526;19.072;2022-12-20T15:37:29;101659.16;;;0.30;100.00
62111;BME280;48102;47.526;19.072;2022-12-20T15:40:31;101673.03;;;0.34;100.00
62111;BME280;48102;47.526;19.072;2022-12-20T15:43:38;101679.03;;;0.27;100.00
62111;BME280;48102;47.526;19.072;2022-12-20T15:46:41;101683.34;;;0.29;100.00
62111;BME280;48102;47.526;19.072;2022-12-20T15:49:45;101680.81;;;0.34;100.00
62111;BME280;48102;47.526;19.072;2022-12-20T15:52:52;101679.09;;;0.31;100.00
62111;BME280;48102;47.526;19.072;2022-12-20T15:55:55;101677.37;;;0.33;100.00
62111;BME280;48102;47.526;19.072;2022-12-20T15:58:58;101683.41;;;0.32;100.00
62111;BME280;48102;47.526;19.072;2022-12-20T16:02:01;101679.91;;;0.29;100.00
62111;BME280;48102;47.526;19.072;2022-12-20T16:05:04;101676.31;;;0.20;100.00
62111;BME280;48102;47.526;19.072;2022-12-20T16:08:07;101672.94;;;0.24;100.00
62111;BME280;48102;47.526;19.072;2022-12-20T16:11:23;101672.06;;;0.24;100.00
62111;BME280;48102;47.526;19.072;2022-12-20T16:14:26;101662.59;;;0.28;100.00
